Portada
METAR-TAF:

METAR-TAF

Aeroports :

Žilina, Eslovàquia

latitud: 49-14N, longitud: 018-36-49E, altitud: 312 m

Observació

L'informe es va fer fa 36 minuts, a les 14:00 UTC
Vent 7 kt del Oest/Sud-Oest, variant entre Sud/Sud-Est i Oest/Nord-Oest
Temperatura 8°C
Humitat 31%
Pressió 1019 hPa
Visibilitat 10 km o més
sense núvols per sota de 1500 mi sense presència de cumulonimbus.

METAR: LZZI 011400Z 25007KT 160V300 CAVOK 08/M08 Q1019

Hora: 16:36 (14:36 UTC)

Pronòstic

L'informe es va fer fa 3 hores i 36 minuts, a les 11:00 UTC
Pronòstic vàlid del 01 a les 12 UTC al 01 a les 21 UTC
Vent 6 kt del Oest/Sud-Oest
Visibilitat 10 km o més
Núvols disperses a una alçada de 4500 ft
Evolucionant progressivament
l' 01 a les 15 UTC al 01 a les 17 UTC
Vent 2 kt amb direcció variable
Visibilitat 10 km o més
sense núvols per sota de 1500 mi sense presència de cumulonimbus.

TAF: LZZI 011100Z 0112/0121 24006KT 9999 SCT045 BECMG 0115/0117 VRB02KT CAVOK

Observacions i pronòstics meteorològics de més de 4000 aeroports (METAR i TAF).

Les estacions disponibles són els punts grocs i vermells al mapa.

Posi el ratolí al punt desitjat per veure el nom de l'estació.

Feu clic per veure les observacions i els pronòstics meteorològics.

Per canviar el mapa: feu clic els botons verds amb una creu de color negre per apropar; al botó verd amb un guió per allunyar la imatge; o en les fletxes verdes per a mapes adjacents.


METAR-TAF: